createdAt,value
2018-09-29T00:01:40.104Z,2.30
2018-09-29T00:04:14.589Z,2.33
2018-09-29T00:06:49.777Z,2.13
2018-09-29T00:09:25.758Z,3.17
2018-09-29T00:12:08.090Z,2.90
2018-09-29T00:14:47.708Z,2.27
2018-09-29T00:17:25.665Z,2.10
2018-09-29T00:19:59.007Z,2.03
2018-09-29T00:25:15.053Z,2.47
2018-09-29T00:27:54.412Z,2.20
2018-09-29T00:30:31.590Z,1.67
2018-09-29T00:33:07.393Z,2.40
2018-09-29T00:35:39.685Z,2.77
2018-09-29T00:38:10.002Z,2.00
2018-09-29T00:40:41.228Z,2.60
2018-09-29T00:43:17.272Z,2.40
2018-09-29T00:45:48.252Z,2.50
2018-09-29T00:48:26.917Z,3.03
2018-09-29T00:50:58.472Z,2.07
2018-09-29T00:53:30.578Z,2.80
2018-09-29T00:56:02.134Z,1.80
2018-09-29T00:58:52.247Z,2.07
2018-09-29T01:01:25.937Z,2.33
2018-09-29T01:03:58.233Z,2.87
2018-09-29T01:06:32.182Z,2.40
2018-09-29T01:09:06.022Z,4.10
2018-09-29T01:11:36.550Z,2.40
2018-09-29T01:14:16.412Z,3.27
2018-09-29T01:16:49.397Z,2.57
2018-09-29T01:19:24.851Z,1.80
2018-09-29T01:22:01.835Z,2.83
2018-09-29T01:24:36.805Z,2.67
2018-09-29T01:27:08.630Z,3.00
2018-09-29T01:29:41.769Z,2.50
2018-09-29T01:32:13.319Z,2.73
2018-09-29T01:34:50.973Z,3.33
2018-09-29T01:37:21.042Z,2.83
2018-09-29T01:39:51.739Z,2.00
2018-09-29T01:42:24.938Z,2.10
2018-09-29T01:44:56.437Z,2.10
2018-09-29T01:47:30.206Z,1.60
2018-09-29T01:50:00.229Z,2.50
2018-09-29T01:52:34.121Z,3.00
2018-09-29T01:55:09.220Z,3.53
2018-09-29T01:57:39.475Z,3.20
2018-09-29T02:00:09.919Z,1.57
2018-09-29T02:02:51.112Z,1.77
2018-09-29T02:08:04.693Z,3.10
2018-09-29T02:10:36.666Z,2.77
2018-09-29T02:13:09.288Z,1.80
2018-09-29T02:15:41.954Z,2.00
2018-09-29T02:18:16.575Z,2.77
2018-09-29T02:20:50.166Z,2.20
2018-09-29T02:23:23.615Z,2.20
2018-09-29T02:25:58.389Z,2.07
2018-09-29T02:28:28.704Z,2.30
2018-09-29T02:30:59.478Z,2.77
2018-09-29T02:33:29.370Z,2.10
2018-09-29T02:36:05.174Z,2.80
2018-09-29T02:38:41.443Z,2.30
2018-09-29T02:41:18.988Z,2.27
2018-09-29T02:43:55.709Z,2.50
2018-09-29T02:46:29.190Z,2.43
2018-09-29T02:51:48.490Z,2.07
2018-09-29T02:54:17.790Z,2.23
2018-09-29T02:56:47.373Z,3.13
2018-09-29T02:59:16.888Z,1.70
2018-09-29T03:01:46.412Z,2.10
2018-09-29T03:04:15.737Z,2.47
2018-09-29T03:06:45.173Z,2.30
2018-09-29T03:09:14.544Z,2.30
2018-09-29T03:11:43.877Z,1.90
2018-09-29T03:14:14.396Z,2.10
2018-09-29T03:16:43.737Z,2.30
2018-09-29T03:19:15.035Z,2.40
2018-09-29T03:21:44.591Z,2.03
2018-09-29T03:24:14.015Z,1.90
2018-09-29T03:26:43.371Z,2.10
2018-09-29T03:29:13.015Z,2.30
2018-09-29T03:31:42.605Z,2.07
2018-09-29T03:34:12.021Z,2.00
2018-09-29T03:36:42.059Z,2.20
2018-09-29T03:39:12.802Z,2.20
2018-09-29T03:41:43.249Z,2.23
2018-09-29T03:44:12.651Z,2.30
2018-09-29T03:46:42.079Z,2.50
2018-09-29T03:49:11.398Z,10.60
2018-09-29T03:51:41.134Z,11.60
2018-09-29T03:54:10.511Z,16.60
2018-09-29T03:56:39.831Z,14.97
2018-09-29T03:59:09.170Z,12.90
2018-09-29T04:01:39.478Z,13.87
2018-09-29T04:04:09.071Z,11.27
2018-09-29T04:06:38.616Z,7.10
2018-09-29T04:09:09.439Z,6.80
2018-09-29T04:11:39.071Z,6.30
2018-09-29T04:14:08.758Z,5.40
2018-09-29T04:16:38.078Z,5.20
2018-09-29T04:19:07.653Z,5.17
2018-09-29T04:21:43.382Z,4.40
2018-09-29T04:24:13.012Z,5.60
2018-09-29T04:26:42.431Z,6.23
2018-09-29T04:29:12.431Z,5.17
2018-09-29T04:31:42.379Z,5.50
2018-09-29T04:34:12.392Z,5.00
2018-09-29T04:36:42.357Z,5.80
2018-09-29T04:39:14.070Z,4.67
2018-09-29T04:41:43.685Z,4.20
2018-09-29T04:44:13.045Z,3.83
2018-09-29T04:46:42.855Z,6.30
2018-09-29T04:49:12.214Z,3.50
2018-09-29T04:51:43.643Z,3.80
2018-09-29T04:54:13.054Z,4.00
2018-09-29T04:56:42.775Z,3.10
2018-09-29T04:59:12.174Z,3.40
2018-09-29T05:01:41.517Z,3.40
2018-09-29T05:04:11.042Z,3.23
2018-09-29T05:06:40.806Z,3.90
2018-09-29T05:09:10.673Z,3.80
2018-09-29T05:11:40.277Z,3.57
2018-09-29T05:14:09.666Z,3.73
2018-09-29T05:16:39.067Z,3.40
2018-09-29T05:19:08.434Z,3.57
2018-09-29T05:21:37.746Z,3.30
2018-09-29T05:24:07.264Z,3.10
2018-09-29T05:26:37.012Z,2.90
2018-09-29T05:29:06.403Z,2.40
2018-09-29T05:31:35.909Z,3.27
2018-09-29T05:34:05.323Z,2.40
2018-09-29T05:36:34.699Z,2.23
2018-09-29T05:39:05.348Z,2.90
2018-09-29T05:41:34.730Z,2.43
2018-09-29T05:44:04.115Z,2.10
2018-09-29T05:46:33.687Z,2.77
2018-09-29T05:49:03.242Z,4.43
2018-09-29T05:51:33.394Z,3.30
2018-09-29T05:54:02.965Z,2.33
2018-09-29T05:56:32.167Z,3.13
2018-09-29T05:59:01.468Z,2.73
2018-09-29T06:01:30.917Z,3.03
2018-09-29T06:04:00.276Z,2.53
2018-09-29T06:06:31.628Z,2.90
2018-09-29T06:09:02.632Z,2.30
2018-09-29T06:11:32.088Z,2.77
2018-09-29T06:14:01.532Z,3.90
2018-09-29T06:16:30.872Z,3.23
2018-09-29T06:19:00.267Z,3.33
2018-09-29T06:21:29.700Z,2.63
2018-09-29T06:23:59.035Z,3.20
2018-09-29T06:26:28.365Z,3.00
2018-09-29T06:28:57.811Z,3.30
2018-09-29T06:31:27.112Z,2.80
2018-09-29T06:33:56.629Z,2.47
2018-09-29T06:36:26.051Z,2.37
2018-09-29T06:38:55.517Z,3.03
2018-09-29T06:41:25.037Z,3.03
2018-09-29T06:43:54.356Z,2.37
2018-09-29T06:46:23.696Z,3.10
2018-09-29T06:48:53.149Z,2.50
2018-09-29T06:51:22.479Z,2.93
2018-09-29T06:53:51.852Z,2.80
2018-09-29T06:56:21.236Z,2.67
2018-09-29T06:58:50.713Z,1.70
2018-09-29T07:01:20.246Z,2.30
2018-09-29T07:03:49.897Z,2.50
2018-09-29T07:06:19.307Z,2.80
2018-09-29T07:08:48.851Z,3.40
2018-09-29T07:11:18.258Z,4.33
2018-09-29T07:13:47.633Z,2.60
2018-09-29T07:16:17.053Z,5.07
2018-09-29T07:18:46.522Z,3.30
2018-09-29T07:21:15.892Z,2.90
2018-09-29T07:23:45.337Z,2.50
2018-09-29T07:26:14.776Z,2.80
2018-09-29T07:28:44.101Z,2.30
2018-09-29T07:31:13.497Z,1.57
2018-09-29T07:33:42.855Z,2.37
2018-09-29T07:36:12.369Z,1.60
2018-09-29T07:38:41.827Z,2.33
2018-09-29T07:41:11.130Z,2.63
2018-09-29T07:43:40.507Z,2.60
2018-09-29T07:46:09.976Z,1.97
2018-09-29T07:48:39.349Z,2.30
2018-09-29T07:51:08.803Z,2.13
2018-09-29T07:53:39.299Z,2.10
2018-09-29T07:56:08.617Z,1.83
2018-09-29T07:58:38.025Z,1.80
2018-09-29T08:01:07.815Z,1.87
2018-09-29T08:03:37.128Z,2.40
2018-09-29T08:06:07.289Z,1.47
2018-09-29T08:08:36.599Z,2.20
2018-09-29T08:11:05.928Z,2.33
2018-09-29T08:13:35.371Z,1.90
2018-09-29T08:16:04.803Z,1.90
2018-09-29T08:18:34.096Z,2.03
2018-09-29T08:21:03.585Z,1.73
2018-09-29T08:23:33.168Z,2.63
2018-09-29T08:26:02.716Z,2.60
2018-09-29T08:28:32.075Z,3.33
2018-09-29T08:31:01.475Z,2.80
2018-09-29T08:33:30.822Z,1.93
2018-09-29T08:36:00.170Z,1.93
2018-09-29T08:38:29.819Z,2.10
2018-09-29T08:40:59.247Z,2.47
2018-09-29T08:43:28.809Z,2.80
2018-09-29T08:45:58.328Z,2.53
2018-09-29T08:48:27.710Z,2.70
2018-09-29T08:50:57.165Z,2.00
2018-09-29T08:53:26.597Z,2.07
2018-09-29T08:55:56.050Z,2.03
2018-09-29T08:58:25.386Z,2.67
2018-09-29T09:00:54.838Z,2.13
2018-09-29T09:03:24.522Z,1.97
2018-09-29T09:05:54.008Z,2.13
2018-09-29T09:08:23.390Z,2.10
2018-09-29T09:10:52.699Z,1.63
2018-09-29T09:13:22.027Z,1.93
2018-09-29T09:15:51.553Z,3.00
2018-09-29T09:18:21.892Z,1.73
2018-09-29T09:20:51.298Z,2.03
2018-09-29T09:23:20.622Z,1.70
2018-09-29T09:25:49.942Z,1.67
2018-09-29T09:28:19.425Z,2.03
2018-09-29T09:30:48.763Z,2.40
2018-09-29T09:33:18.131Z,2.10
2018-09-29T09:35:47.631Z,1.57
2018-09-29T09:38:17.089Z,1.47
2018-09-29T09:40:46.517Z,2.03
2018-09-29T09:43:15.959Z,1.50
2018-09-29T09:45:45.398Z,2.10
2018-09-29T09:48:15.131Z,1.43
2018-09-29T09:50:44.558Z,1.20
2018-09-29T09:53:14.071Z,1.53
2018-09-29T09:55:43.575Z,1.90
2018-09-29T09:58:12.910Z,1.40
2018-09-29T10:00:48.804Z,2.37
2018-09-29T10:03:23.442Z,1.13
2018-09-29T10:05:53.052Z,2.80
2018-09-29T10:08:22.643Z,1.40
2018-09-29T10:10:52.257Z,1.30
2018-09-29T10:13:21.611Z,1.03
2018-09-29T10:15:51.326Z,1.23
2018-09-29T10:18:20.778Z,1.37
2018-09-29T10:20:50.148Z,1.40
2018-09-29T10:23:19.531Z,1.30
2018-09-29T10:25:48.973Z,1.27
2018-09-29T10:28:18.365Z,1.43
2018-09-29T10:30:48.162Z,0.80
2018-09-29T10:33:17.605Z,1.50
2018-09-29T10:35:47.095Z,0.90
2018-09-29T10:38:16.669Z,1.20
2018-09-29T10:40:46.309Z,1.50
2018-09-29T10:43:15.635Z,1.20
2018-09-29T10:45:45.222Z,1.00
2018-09-29T10:48:14.633Z,1.20
2018-09-29T10:50:44.028Z,0.97
2018-09-29T10:53:13.373Z,1.40
2018-09-29T10:55:42.967Z,1.20
2018-09-29T10:58:12.422Z,1.00
2018-09-29T11:00:41.975Z,0.93
2018-09-29T11:03:11.482Z,0.90
2018-09-29T11:05:41.013Z,1.43
2018-09-29T11:08:10.497Z,1.03
2018-09-29T11:10:40.144Z,1.67
2018-09-29T11:13:09.621Z,1.70
2018-09-29T11:15:39.233Z,0.60
2018-09-29T11:18:08.595Z,0.80
2018-09-29T11:20:38.046Z,1.10
2018-09-29T11:23:08.668Z,1.10
2018-09-29T11:25:38.531Z,0.83
2018-09-29T11:28:08.020Z,1.17
2018-09-29T11:30:37.797Z,0.97
2018-09-29T11:33:07.469Z,1.10
2018-09-29T11:35:37.473Z,0.80
2018-09-29T11:38:06.980Z,1.33
2018-09-29T11:40:36.378Z,1.00
2018-09-29T11:43:06.072Z,0.67
2018-09-29T11:45:35.507Z,1.20
2018-09-29T11:48:04.890Z,1.47
2018-09-29T11:50:34.536Z,1.13
2018-09-29T11:53:03.876Z,2.00
2018-09-29T11:55:33.245Z,0.90
2018-09-29T11:58:02.711Z,1.47
2018-09-29T12:00:32.298Z,1.40
2018-09-29T12:03:01.700Z,1.00
2018-09-29T12:05:31.198Z,1.10
2018-09-29T12:08:00.702Z,1.23
2018-09-29T12:10:30.132Z,1.43
2018-09-29T12:13:01.736Z,2.10
2018-09-29T12:15:31.363Z,1.50
2018-09-29T12:18:00.828Z,1.40
2018-09-29T12:20:30.265Z,1.40
2018-09-29T12:22:59.847Z,1.77
2018-09-29T12:25:29.491Z,1.37
2018-09-29T12:27:58.963Z,1.47
2018-09-29T12:30:28.455Z,1.50
2018-09-29T12:32:57.824Z,1.40
2018-09-29T12:35:27.248Z,1.43
2018-09-29T12:37:57.741Z,1.37
2018-09-29T12:40:27.159Z,1.77
2018-09-29T12:42:56.549Z,1.30
2018-09-29T12:45:25.940Z,1.50
2018-09-29T12:47:55.451Z,2.03
2018-09-29T12:50:24.833Z,2.23
2018-09-29T12:52:54.185Z,2.00
2018-09-29T12:55:23.525Z,2.20
2018-09-29T12:57:53.435Z,1.50
2018-09-29T13:00:23.043Z,1.70
2018-09-29T13:02:52.629Z,1.70
2018-09-29T13:05:22.335Z,2.00
2018-09-29T13:07:51.828Z,1.30
2018-09-29T13:10:21.321Z,1.57
2018-09-29T13:12:50.897Z,2.77
2018-09-29T13:15:20.480Z,2.07
2018-09-29T13:17:49.931Z,1.63
2018-09-29T13:20:19.397Z,1.83
2018-09-29T13:22:49.080Z,2.07
2018-09-29T13:25:18.609Z,1.73
2018-09-29T13:27:47.932Z,1.90
2018-09-29T13:30:18.135Z,1.73
2018-09-29T13:32:47.685Z,2.47
2018-09-29T13:35:17.041Z,2.27
2018-09-29T13:37:46.448Z,1.60
2018-09-29T13:40:15.894Z,2.13
2018-09-29T13:42:45.418Z,1.77
2018-09-29T13:45:14.987Z,1.87
2018-09-29T13:47:46.484Z,2.60
2018-09-29T13:50:16.103Z,1.97
2018-09-29T13:52:45.585Z,1.80
2018-09-29T13:55:15.204Z,1.70
2018-09-29T13:57:44.773Z,2.20
2018-09-29T14:00:14.100Z,1.70
2018-09-29T14:02:43.973Z,1.53
2018-09-29T14:05:13.517Z,1.43
2018-09-29T14:07:43.253Z,1.40
2018-09-29T14:10:12.661Z,2.00
2018-09-29T14:12:42.093Z,2.33
2018-09-29T14:15:11.597Z,1.70
2018-09-29T14:17:41.107Z,1.83
2018-09-29T14:20:13.616Z,2.03
2018-09-29T14:22:43.111Z,1.63
2018-09-29T14:25:12.427Z,1.30
2018-09-29T14:27:41.828Z,2.00
2018-09-29T14:30:11.326Z,1.40
2018-09-29T14:32:40.685Z,1.63
2018-09-29T14:35:10.305Z,2.73
2018-09-29T14:37:46.278Z,1.60
2018-09-29T14:40:16.106Z,1.17
2018-09-29T14:42:45.470Z,1.80
2018-09-29T14:45:14.898Z,1.70
2018-09-29T14:47:44.170Z,1.20
2018-09-29T14:50:13.726Z,1.87
2018-09-29T14:52:43.059Z,1.77
2018-09-29T14:55:12.494Z,1.53
2018-09-29T14:57:41.802Z,1.73
2018-09-29T15:00:11.285Z,1.87
2018-09-29T15:02:41.913Z,2.37
2018-09-29T15:05:11.309Z,1.60
2018-09-29T15:07:40.654Z,1.10
2018-09-29T15:10:10.107Z,1.80
2018-09-29T15:12:39.559Z,1.47
2018-09-29T15:15:09.975Z,1.60
2018-09-29T15:17:39.907Z,2.27
2018-09-29T15:20:10.260Z,1.70
2018-09-29T15:22:39.622Z,1.80
2018-09-29T15:25:09.017Z,1.23
2018-09-29T15:27:39.629Z,1.70
2018-09-29T15:30:09.051Z,1.10
2018-09-29T15:32:38.570Z,3.03
2018-09-29T15:35:07.972Z,2.00
2018-09-29T15:37:37.438Z,2.40
2018-09-29T15:40:06.958Z,1.50
2018-09-29T15:42:36.599Z,1.40
2018-09-29T15:45:07.536Z,1.03
2018-09-29T15:47:37.018Z,1.67
2018-09-29T15:50:06.978Z,1.60
2018-09-29T15:52:36.420Z,1.77
2018-09-29T15:55:05.891Z,1.30
2018-09-29T15:57:35.384Z,2.20
2018-09-29T16:00:04.957Z,1.80
2018-09-29T16:02:34.368Z,1.20
2018-09-29T16:05:03.865Z,1.70
2018-09-29T16:07:33.371Z,1.77
2018-09-29T16:10:03.085Z,1.50
2018-09-29T16:12:32.647Z,1.07
2018-09-29T16:15:02.630Z,1.93
2018-09-29T16:17:36.142Z,1.83
2018-09-29T16:20:10.570Z,2.00
2018-09-29T16:22:39.916Z,2.37
2018-09-29T16:25:09.339Z,1.73
2018-09-29T16:27:38.898Z,1.97
2018-09-29T16:30:08.808Z,1.87
2018-09-29T16:32:38.222Z,1.47
2018-09-29T16:35:07.633Z,1.20
2018-09-29T16:37:37.185Z,1.77
2018-09-29T16:40:06.631Z,1.20
2018-09-29T16:42:36.075Z,1.83
2018-09-29T16:45:06.609Z,1.57
2018-09-29T16:47:36.206Z,2.20
2018-09-29T16:50:06.311Z,2.00
2018-09-29T16:52:35.656Z,2.00
2018-09-29T16:55:05.093Z,1.70
2018-09-29T16:57:34.535Z,2.30
2018-09-29T17:00:03.932Z,1.80
2018-09-29T17:02:33.248Z,2.10
2018-09-29T17:05:02.922Z,2.40
2018-09-29T17:07:32.385Z,2.03
2018-09-29T17:10:01.755Z,2.33
2018-09-29T17:12:31.569Z,1.63
2018-09-29T17:15:00.909Z,2.00
2018-09-29T17:17:30.269Z,2.53
2018-09-29T17:19:59.657Z,2.30
2018-09-29T17:22:29.156Z,2.77
2018-09-29T17:24:58.486Z,2.00
2018-09-29T17:27:27.870Z,3.93
2018-09-29T17:29:57.248Z,4.70
2018-09-29T17:32:26.574Z,3.50
2018-09-29T17:34:55.866Z,3.23
2018-09-29T17:37:25.240Z,3.77
2018-09-29T17:39:54.671Z,3.73
2018-09-29T17:42:24.030Z,3.40
2018-09-29T17:44:53.389Z,2.90
2018-09-29T17:47:22.957Z,2.97
2018-09-29T17:49:52.361Z,8.70
2018-09-29T17:52:21.911Z,6.07
2018-09-29T17:54:51.348Z,8.67
2018-09-29T17:57:20.769Z,8.60
2018-09-29T17:59:50.120Z,5.47
2018-09-29T18:02:19.522Z,6.70
2018-09-29T18:04:49.028Z,7.60
2018-09-29T18:07:18.403Z,5.77
2018-09-29T18:09:47.835Z,4.97
2018-09-29T18:12:17.427Z,9.67
2018-09-29T18:14:46.840Z,4.60
2018-09-29T18:17:16.221Z,5.23
2018-09-29T18:19:45.719Z,4.03
2018-09-29T18:22:15.357Z,5.67
2018-09-29T18:24:45.796Z,8.70
2018-09-29T18:27:15.166Z,6.03
2018-09-29T18:29:44.661Z,13.67
2018-09-29T18:32:14.042Z,14.03
2018-09-29T18:34:43.444Z,12.50
2018-09-29T18:37:12.961Z,12.40
2018-09-29T18:39:42.460Z,6.63
2018-09-29T18:42:11.879Z,5.97
2018-09-29T18:44:41.367Z,5.57
2018-09-29T18:47:11.084Z,5.67
2018-09-29T18:49:40.546Z,5.20
2018-09-29T18:52:10.338Z,4.80
2018-09-29T18:54:39.674Z,6.27
2018-09-29T18:57:09.281Z,6.20
2018-09-29T18:59:38.769Z,5.13
2018-09-29T19:02:08.390Z,5.60
2018-09-29T19:04:38.087Z,5.60
2018-09-29T19:07:07.604Z,5.03
2018-09-29T19:09:37.004Z,4.93
2018-09-29T19:12:07.339Z,5.17
2018-09-29T19:14:36.711Z,5.93
2018-09-29T19:17:06.437Z,5.27
2018-09-29T19:19:35.802Z,5.07
2018-09-29T19:22:05.286Z,8.23
2018-09-29T19:24:34.766Z,4.87
2018-09-29T19:27:04.108Z,4.80
2018-09-29T19:29:33.511Z,4.30
2018-09-29T19:32:02.934Z,4.60
2018-09-29T19:34:32.333Z,5.47
2018-09-29T19:37:02.384Z,4.20
2018-09-29T19:39:31.858Z,4.93
2018-09-29T19:42:01.537Z,3.83
2018-09-29T19:44:31.717Z,4.27
2018-09-29T19:47:01.211Z,4.93
2018-09-29T19:49:30.771Z,4.73
2018-09-29T19:52:00.202Z,5.10
2018-09-29T19:54:29.544Z,6.47
2018-09-29T19:56:58.873Z,6.70
2018-09-29T19:59:28.191Z,7.33
2018-09-29T20:01:57.496Z,6.47
2018-09-29T20:04:26.810Z,5.90
2018-09-29T20:06:56.463Z,6.37
2018-09-29T20:09:25.885Z,5.87
2018-09-29T20:11:55.438Z,6.20
2018-09-29T20:14:24.774Z,6.00
2018-09-29T20:16:54.245Z,6.07
2018-09-29T20:19:23.846Z,6.23
2018-09-29T20:21:53.441Z,6.57
2018-09-29T20:24:22.865Z,5.50
2018-09-29T20:26:52.385Z,6.73
2018-09-29T20:29:22.109Z,5.97
2018-09-29T20:31:51.417Z,6.10
2018-09-29T20:34:20.864Z,6.30
2018-09-29T20:36:50.374Z,6.07
2018-09-29T20:39:19.850Z,7.47
2018-09-29T20:41:49.163Z,9.50
2018-09-29T20:44:18.531Z,11.53
2018-09-29T20:46:48.082Z,9.27
2018-09-29T20:49:17.731Z,9.60
2018-09-29T20:51:47.155Z,11.30
2018-09-29T20:54:16.576Z,9.77
2018-09-29T20:56:45.917Z,8.87
2018-09-29T20:59:15.365Z,8.80
2018-09-29T21:01:45.603Z,9.07
2018-09-29T21:04:14.926Z,6.73
2018-09-29T21:06:44.248Z,5.63
2018-09-29T21:09:13.681Z,7.77
2018-09-29T21:11:43.077Z,6.33
2018-09-29T21:14:12.675Z,7.70
2018-09-29T21:16:41.989Z,5.77
2018-09-29T21:19:11.452Z,6.30
2018-09-29T21:21:40.814Z,5.93
2018-09-29T21:24:10.324Z,6.63
2018-09-29T21:26:39.843Z,6.03
2018-09-29T21:29:09.235Z,6.57
2018-09-29T21:31:38.584Z,7.07
2018-09-29T21:34:08.163Z,5.70
2018-09-29T21:36:37.688Z,7.30
2018-09-29T21:39:08.632Z,5.70
2018-09-29T21:41:38.191Z,5.63
2018-09-29T21:44:07.619Z,7.03
2018-09-29T21:46:37.168Z,5.60
2018-09-29T21:49:06.524Z,3.93
2018-09-29T21:51:36.098Z,3.63
2018-09-29T21:54:05.436Z,4.00
2018-09-29T21:56:35.105Z,4.80
2018-09-29T21:59:04.628Z,3.90
2018-09-29T22:01:34.333Z,7.47
2018-09-29T22:04:04.152Z,3.97
2018-09-29T22:06:33.474Z,3.47
2018-09-29T22:09:03.090Z,5.13
2018-09-29T22:11:32.491Z,4.50
2018-09-29T22:14:01.919Z,5.20
2018-09-29T22:16:31.239Z,3.90
2018-09-29T22:19:00.548Z,5.50
2018-09-29T22:21:29.892Z,4.13
2018-09-29T22:23:59.268Z,3.90
2018-09-29T22:26:28.704Z,5.47
2018-09-29T22:28:58.158Z,6.20
2018-09-29T22:31:27.471Z,4.97
2018-09-29T22:33:57.071Z,3.93
2018-09-29T22:36:26.504Z,5.30
2018-09-29T22:38:56.061Z,4.20
2018-09-29T22:41:25.450Z,5.37
2018-09-29T22:43:54.769Z,3.90
2018-09-29T22:46:24.231Z,3.60
2018-09-29T22:48:53.533Z,4.10
2018-09-29T22:51:22.849Z,3.10
2018-09-29T22:53:52.145Z,2.93
2018-09-29T22:56:21.592Z,4.47
2018-09-29T22:58:51.017Z,3.20
2018-09-29T23:01:20.337Z,4.00
2018-09-29T23:03:49.763Z,4.83
2018-09-29T23:06:19.113Z,3.00
2018-09-29T23:08:48.421Z,2.70
2018-09-29T23:11:17.743Z,4.60
2018-09-29T23:13:47.189Z,5.20
2018-09-29T23:16:16.520Z,4.03
2018-09-29T23:18:45.832Z,4.20
2018-09-29T23:21:15.249Z,4.40
2018-09-29T23:23:44.654Z,4.50
2018-09-29T23:26:14.234Z,5.30
2018-09-29T23:28:43.592Z,5.17
2018-09-29T23:31:12.964Z,4.57
2018-09-29T23:33:42.416Z,3.90
2018-09-29T23:36:11.767Z,4.50
2018-09-29T23:38:41.200Z,4.20
2018-09-29T23:41:10.515Z,4.40
2018-09-29T23:43:39.837Z,4.53
2018-09-29T23:46:09.240Z,4.13
2018-09-29T23:48:38.653Z,4.43
2018-09-29T23:51:08.155Z,4.30
2018-09-29T23:53:37.636Z,4.30
2018-09-29T23:56:07.111Z,3.83
2018-09-29T23:58:36.416Z,4.40
